Duckwater, NV (89314)

11:40 PM PDT on August 25, 2016 (GMT -0700)
| | Change Station

Elev -9999 ft 0.00 °N, 0.00 °E | Updated

Clear
Clear
47 °F
Feels Like 42 °F
N
8
Wind Variable Wind from South
Gusts mph

Today
High -- | Low -- °F
--% Chance of Precip.
Yesterday
High -- | Low -- °F
Precip. -- in
Pressure 29.89 in
Visibility 10.0 miles
Clouds Clear
Windchill 42 °F
Dew Point 32 °F
Humidity 55%
Rainfall --
Snow Depth Not available.
6:02 AM 7:19 PM
Last Quarter, 37% visible
METAR KELY 260553Z AUTO 19007KT 10SM CLR 13/M01 A3013 RMK AO2 SLP120 T01331006 10256 20106 50010
Pressure 29.89 in
Visibility 10.0 miles
Clouds Clear
Windchill 42 °F
Dew Point 32 °F
Humidity 55%
Rainfall --
Snow Depth Not available.
6:02 AM 7:19 PM
Last Quarter, 37% visible
METAR KELY 260553Z AUTO 19007KT 10SM CLR 13/M01 A3013 RMK AO2 SLP120 T01331006 10256 20106 50010

10-Day Weather Forecast

Almanac

Astronomy

Aug. 25, 2016 Rise Set
Actual Time
Civil Twilight
Nautical Twilight
Astronomical Twilight
Moon
Length of Visible Light
Length of Day
Tomorrow will be .
, % of the Moon is Illuminated

Today's Extremes

State Highs State Lows

Community

WunderPhotos

Upload Photos

1,935,065 photos uploaded!

WunderBlog® & News

Nearby

Air Quality

  Air Quality AQ Index Pollutant
Not available.

Snow Depth

Station Depth Elevation

Earthquake Activity

City Distance Mag. Time & Date
Minimum magnitude displayed is 2.5.

Coastal Water Temperatures

Place Temperature

Stations

Nearby Weather Stations

Station Location Temp. Windchill Dew Point Humidity Wind Precip. Elev Updated Type
                   

Watches & Warnings

There are currently no watches in effect.